Date,TemperatureHighF,TemperatureAvgF,TemperatureLowF,DewpointHighF,DewpointAvgF,DewpointLowF,HumidityHigh,HumidityAvg,HumidityLow,PressureMaxIn,PressureMinIn,WindSpeedMaxMPH,WindSpeedAvgMPH,GustSpeedMaxMPH,PrecipitationSumIn
2013-1-1,47,36,26,26,18,6,100,56,23,0.00,40.00,18,6,34,0.00
2013-1-2,60,42,27,30,12,3,76,34,12,0.00,40.00,16,7,36,0.00
2013-1-3,67,40,26,21,16,7,77,44,13,0.00,40.00,5,1,11,0.00
2013-1-4,68,40,23,18,13,6,62,40,10,0.00,40.00,6,1,12,0.00
2013-1-5,65,43,29,28,18,3,64,41,16,0.00,40.00,12,3,25,0.00
2013-1-6,47,38,32,38,34,14,100,87,30,0.00,40.00,10,3,25,0.09
2013-1-7,49,36,30,38,34,30,100,94,62,0.00,40.00,8,2,19,0.06
2013-1-8,72,44,29,41,32,29,100,72,25,0.00,40.00,7,1,15,0.00
2013-1-9,66,53,41,39,29,20,67,42,26,0.00,40.00,8,3,27,0.00
2013-1-10,41,34,30,40,31,22,100,89,63,0.00,40.00,8,3,19,0.00
2013-1-11,38,31,25,29,25,20,98,79,56,0.00,40.00,8,2,24,0.05
2013-1-12,43,29,20,26,22,16,100,77,48,0.00,40.00,5,2,13,0.01
2013-1-13,46,28,15,25,18,13,92,71,32,0.00,40.00,6,1,16,0.00
2013-1-14,48,30,18,15,6,2,76,38,16,0.00,40.00,10,3,21,0.00
2013-1-15,63,37,23,19,13,7,63,40,16,0.00,40.00,8,2,18,0.00
2013-1-16,72,47,29,26,22,14,72,42,17,0.00,40.00,7,2,14,0.00
2013-1-17,65,51,41,11,3,-5,28,16,6,0.00,40.00,17,8,31,0.00
2013-1-18,68,50,39,13,8,4,28,19,9,0.00,40.00,10,5,18,0.00
2013-1-19,66,50,41,9,3,-8,21,16,5,0.00,40.00,13,6,23,0.00
2013-1-20,68,51,37,6,-1,-16,23,13,4,0.00,40.00,13,6,22,0.00
2013-1-21,69,52,39,2,-4,-20,20,12,3,0.00,40.00,12,5,26,0.00
2013-1-22,72,53,40,7,0,-13,16,12,3,0.00,40.00,10,3,19,0.00
2013-1-23,70,57,46,44,24,1,94,31,12,0.00,40.00,9,4,29,0.05
2013-1-24,63,52,46,56,50,44,100,93,70,0.00,40.00,5,2,17,0.48
2013-1-25,53,49,45,50,48,45,100,97,80,0.00,40.00,7,2,16,0.15
2013-1-26,57,47,39,52,46,38,100,96,74,0.00,40.00,5,1,11,0.26
2013-1-27,47,37,33,39,32,26,100,84,61,0.00,40.00,8,4,23,0.01
2013-1-28,44,34,30,33,27,24,98,76,55,0.00,40.00,9,5,24,0.00
2013-1-29,53,39,31,32,28,25,90,67,39,0.00,40.00,7,2,15,0.00
2013-1-30,68,46,29,39,32,26,98,64,28,0.00,40.00,10,2,18,0.00
2013-1-31,74,52,31,38,32,28,97,52,22,0.00,40.00,6,2,16,0.00